Time;durP1;ratioP1;P1;durP2;ratioP2;P2;SDS_P1;SDS_P2;PMS_P1;PMS_P2;Temp;Humidity;BMP_temperature;BMP_pressure;BME280_temperature;BME280_humidity;BME280_pressure;Samples;Min_cycle;Max_cycle;Signal;HPM_P1;HPM_P2
2022/07/24 00:01:35;;;;;;;3.38;3.15;;;24.80;88.30;;;;;;5053976;28;20284;-88
2022/07/24 00:04:04;;;;;;;3.20;3.00;;;24.80;88.70;;;;;;5053715;28;20222;-88
2022/07/24 00:06:34;;;;;;;3.42;3.13;;;24.70;89.10;;;;;;5053823;28;20212;-88
2022/07/24 00:09:02;;;;;;;3.15;2.95;;;24.70;90.00;;;;;;5053412;28;20237;-88
2022/07/24 00:11:31;;;;;;;3.80;3.50;;;24.70;89.60;;;;;;5053271;28;20212;-88
2022/07/24 00:14:00;;;;;;;3.42;3.22;;;24.70;90.00;;;;;;5053929;28;20212;-88
2022/07/24 00:16:28;;;;;;;4.53;2.80;;;24.70;90.10;;;;;;5053662;28;20206;-88
2022/07/24 00:18:57;;;;;;;4.20;3.50;;;24.60;90.20;;;;;;5053520;28;20236;-88
2022/07/24 00:21:25;;;;;;;3.28;3.03;;;24.60;90.30;;;;;;5053510;28;20225;-88
2022/07/24 00:23:55;;;;;;;3.42;3.13;;;24.60;90.50;;;;;;5053172;28;20312;-88
2022/07/24 00:26:23;;;;;;;3.05;2.85;;;24.60;90.80;;;;;;5053589;28;20229;-88
2022/07/24 00:28:51;;;;;;;3.42;3.13;;;24.50;90.60;;;;;;5053389;28;20255;-88
2022/07/24 00:31:20;;;;;;;4.13;3.65;;;24.50;90.70;;;;;;5053379;28;20240;-89
2022/07/24 00:33:48;;;;;;;13.45;3.55;;;24.50;90.80;;;;;;5053202;28;20228;-88
2022/07/24 00:36:17;;;;;;;5.25;3.15;;;24.50;90.90;;;;;;5053212;28;20201;-88
2022/07/24 00:38:45;;;;;;;2.92;2.72;;;24.50;91.00;;;;;;5053213;28;20312;-88
2022/07/24 00:41:15;;;;;;;5.22;3.80;;;24.50;91.20;;;;;;5053238;28;20205;-88
2022/07/24 00:44:03;;;;;;;3.50;3.30;;;24.50;91.30;;;;;;5052991;28;20226;-88
2022/07/24 00:46:32;;;;;;;4.25;3.60;;;24.40;91.60;;;;;;5052963;28;20288;-88
2022/07/24 00:49:01;;;;;;;3.90;3.60;;;24.40;91.50;;;;;;5052710;28;20206;-88
2022/07/24 00:51:30;;;;;;;3.83;3.53;;;24.40;91.60;;;;;;5053002;28;20284;-88
2022/07/24 00:53:58;;;;;;;4.22;3.88;;;24.40;91.80;;;;;;5052853;28;20253;-88
2022/07/24 00:56:28;;;;;;;3.17;2.97;;;24.40;91.90;;;;;;5053242;28;20288;-90
2022/07/24 00:58:56;;;;;;;3.67;3.38;;;24.30;92.20;;;;;;5052681;28;20289;-90
2022/07/24 01:01:24;;;;;;;3.45;3.22;;;24.30;92.50;;;;;;5053050;28;20240;-90
2022/07/24 01:03:53;;;;;;;4.53;3.53;;;24.20;92.70;;;;;;5052449;28;20289;-90
2022/07/24 01:06:22;;;;;;;3.90;3.30;;;24.10;93.00;;;;;;5052877;28;20217;-90
2022/07/24 01:08:51;;;;;;;3.90;3.60;;;24.10;93.20;;;;;;5052445;28;20247;-90
2022/07/24 01:11:20;;;;;;;3.65;3.35;;;24.10;93.50;;;;;;5052636;28;20241;-90
2022/07/24 01:13:51;;;;;;;3.90;3.60;;;24.10;93.80;;;;;;5052594;28;20240;-90
2022/07/24 01:16:19;;;;;;;5.03;4.53;;;24.00;94.10;;;;;;5052368;28;20277;-90
2022/07/24 01:18:48;;;;;;;3.58;3.28;;;23.90;94.40;;;;;;5052085;28;20202;-90
2022/07/24 01:21:18;;;;;;;3.38;3.13;;;23.90;94.80;;;;;;5052862;28;20244;-90
2022/07/24 01:23:48;;;;;;;3.70;3.40;;;23.90;95.10;;;;;;5052114;28;20228;-90
2022/07/24 01:26:16;;;;;;;3.05;2.85;;;23.90;95.50;;;;;;5052714;28;20221;-90
2022/07/24 01:28:44;;;;;;;3.92;3.63;;;23.90;95.80;;;;;;5052458;28;20232;-90
2022/07/24 01:31:12;;;;;;;4.10;3.72;;;23.90;96.30;;;;;;5053860;28;20285;-89
2022/07/24 01:33:41;;;;;;;4.68;4.28;;;23.80;96.60;;;;;;5056664;28;20225;-90
2022/07/24 01:36:10;;;;;;;3.60;3.30;;;23.80;97.30;;;;;;5057158;28;20233;-90
2022/07/24 01:38:39;;;;;;;3.80;3.50;;;23.70;97.70;;;;;;5056535;28;20225;-90
2022/07/24 01:41:08;;;;;;;3.85;3.55;;;23.70;98.40;;;;;;5056931;28;20252;-90
2022/07/24 01:43:36;;;;;;;3.58;3.28;;;23.70;99.00;;;;;;5056272;28;20252;-90
2022/07/24 01:46:04;;;;;;;4.25;3.85;;;23.70;99.60;;;;;;5056281;28;20208;-90
2022/07/24 01:48:33;;;;;;;3.20;3.00;;;23.70;99.90;;;;;;5055906;28;20201;-90
2022/07/24 01:51:01;;;;;;;4.53;3.72;;;23.60;99.90;;;;;;5056455;28;20296;-90
2022/07/24 01:53:29;;;;;;;4.43;4.03;;;23.60;99.90;;;;;;5056036;28;20308;-90
2022/07/24 01:55:59;;;;;;;4.00;3.70;;;23.60;99.90;;;;;;5056165;28;20244;-90
2022/07/24 01:58:28;;;;;;;5.18;3.72;;;23.60;99.90;;;;;;5056106;28;20202;-88
2022/07/24 02:00:56;;;;;;;3.80;3.53;;;23.50;99.90;;;;;;5056035;28;20249;-88
2022/07/24 02:03:24;;;;;;;4.72;4.25;;;23.40;99.90;;;;;;5055949;28;20225;-88
2022/07/24 02:05:53;;;;;;;5.43;4.03;;;23.40;99.90;;;;;;5056160;28;20313;-88
2022/07/24 02:08:21;;;;;;;4.18;3.78;;;23.40;99.90;;;;;;5055952;28;20292;-88
2022/07/24 02:10:49;;;;;;;4.82;4.43;;;23.30;99.90;;;;;;5055925;28;20228;-88
2022/07/24 02:13:19;;;;;;;4.85;4.43;;;23.20;99.90;;;;;;5055840;28;20241;-88
2022/07/24 02:15:48;;;;;;;4.43;4.00;;;23.20;99.90;;;;;;5056086;28;20201;-88
2022/07/24 02:18:16;;;;;;;4.72;4.32;;;23.10;99.90;;;;;;5055980;28;20296;-88
2022/07/24 02:20:44;;;;;;;4.93;4.07;;;23.10;99.90;;;;;;5055643;28;20240;-88
2022/07/24 02:23:17;;;;;;;6.00;4.85;;;23.00;99.90;;;;;;5055723;28;20279;-88
2022/07/24 02:25:46;;;;;;;5.25;4.85;;;23.00;99.90;;;;;;5055211;28;20222;-88
2022/07/24 02:28:16;;;;;;;4.72;4.32;;;23.00;99.90;;;;;;5055408;28;20288;-88
2022/07/24 02:30:46;;;;;;;5.32;4.85;;;22.90;99.90;;;;;;5055550;28;20210;-88
2022/07/24 02:33:14;;;;;;;4.53;4.18;;;22.90;99.90;;;;;;5055639;28;20281;-88
2022/07/24 02:35:42;;;;;;;5.50;5.00;;;22.90;99.90;;;;;;5055589;28;20193;-88
2022/07/24 02:38:11;;;;;;;5.88;4.93;;;22.90;99.90;;;;;;5055306;28;20234;-88
2022/07/24 02:40:39;;;;;;;5.43;5.00;;;22.90;99.90;;;;;;5055512;28;20292;-88
2022/07/24 02:43:07;;;;;;;5.28;4.60;;;22.90;99.90;;;;;;5055144;28;20256;-88
2022/07/24 02:45:36;;;;;;;7.13;5.72;;;22.90;99.90;;;;;;5055402;28;20237;-88
2022/07/24 02:48:06;;;;;;;5.72;5.22;;;22.90;99.90;;;;;;5055412;28;20268;-88
2022/07/24 02:50:38;;;;;;;6.65;5.97;;;22.80;99.90;;;;;;5054793;28;20220;-88
2022/07/24 02:53:07;;;;;;;8.43;5.32;;;22.80;99.90;;;;;;5055150;28;20234;-88
2022/07/24 02:55:35;;;;;;;6.30;5.80;;;22.70;99.90;;;;;;5055029;28;20232;-87
2022/07/24 02:58:04;;;;;;;5.93;5.43;;;22.70;99.90;;;;;;5055405;28;20292;-88
2022/07/24 03:00:32;;;;;;;7.00;6.30;;;22.60;99.90;;;;;;5054898;28;20214;-88
2022/07/24 03:03:01;;;;;;;9.60;6.28;;;22.60;99.90;;;;;;5054820;28;20309;-88
2022/07/24 03:05:31;;;;;;;7.50;5.53;;;22.60;99.90;;;;;;5054993;28;20225;-88
2022/07/24 03:08:00;;;;;;;7.05;5.53;;;22.60;99.90;;;;;;5054742;28;20216;-88
2022/07/24 03:10:28;;;;;;;6.05;5.53;;;22.60;99.90;;;;;;5054811;28;20284;-88
2022/07/24 03:12:56;;;;;;;5.22;4.78;;;22.50;99.90;;;;;;5054885;28;20255;-88
2022/07/24 03:15:24;;;;;;;6.82;4.55;;;22.50;99.90;;;;;;5054874;28;20257;-88
2022/07/24 03:17:54;;;;;;;6.25;5.72;;;22.50;99.90;;;;;;5054708;28;20213;-88
2022/07/24 03:20:26;;;;;;;5.63;5.15;;;22.40;99.90;;;;;;5054627;28;20209;-88
2022/07/24 03:22:56;;;;;;;8.65;4.72;;;22.40;99.90;;;;;;5054412;28;20244;-88
2022/07/24 03:25:24;;;;;;;5.20;4.70;;;22.40;99.90;;;;;;5054145;28;20317;-88
2022/07/24 03:27:53;;;;;;;6.57;5.95;;;22.30;99.90;;;;;;5054734;28;20210;-89
2022/07/24 03:30:23;;;;;;;5.22;4.82;;;22.30;99.90;;;;;;5054375;28;20237;-90
2022/07/24 03:32:52;;;;;;;6.35;5.78;;;22.30;99.90;;;;;;5054453;28;20241;-90
2022/07/24 03:35:20;;;;;;;6.68;5.47;;;22.20;99.90;;;;;;5054350;28;20293;-90
2022/07/24 03:37:48;;;;;;;6.07;5.50;;;22.20;99.90;;;;;;5054418;28;20209;-90
2022/07/24 03:40:18;;;;;;;5.82;5.32;;;22.10;99.90;;;;;;5054455;28;20202;-90
2022/07/24 03:42:47;;;;;;;6.13;5.53;;;22.10;99.90;;;;;;5054595;28;20279;-90
2022/07/24 03:45:15;;;;;;;6.72;5.97;;;22.10;99.90;;;;;;5054389;28;20245;-90
2022/07/24 03:47:43;;;;;;;5.53;5.10;;;22.10;99.90;;;;;;5054202;28;20260;-90
2022/07/24 03:50:12;;;;;;;6.20;5.63;;;22.10;99.90;;;;;;5053905;28;20206;-90
2022/07/24 03:52:43;;;;;;;5.82;5.30;;;22.10;99.90;;;;;;5054130;28;20229;-90
2022/07/24 03:55:12;;;;;;;6.38;5.78;;;22.10;99.90;;;;;;5053771;28;20205;-90
2022/07/24 03:57:41;;;;;;;6.00;5.47;;;22.00;99.90;;;;;;5053922;28;20288;-90
2022/07/24 04:00:11;;;;;;;7.78;6.50;;;22.00;99.90;;;;;;5053603;28;20213;-90
2022/07/24 04:02:39;;;;;;;6.18;5.65;;;22.00;99.90;;;;;;5053786;28;20230;-90
2022/07/24 04:05:08;;;;;;;5.25;4.85;;;22.00;99.90;;;;;;5053513;28;20221;-90
2022/07/24 04:07:37;;;;;;;5.55;5.05;;;22.00;99.90;;;;;;5054041;28;20209;-85
2022/07/24 04:10:07;;;;;;;5.05;4.65;;;22.00;99.90;;;;;;5053634;28;20301;-85
2022/07/24 04:12:36;;;;;;;5.78;5.38;;;22.00;99.90;;;;;;5053555;28;20320;-85
2022/07/24 04:15:06;;;;;;;5.93;5.43;;;22.00;99.90;;;;;;5053424;28;20232;-85
2022/07/24 04:17:39;;;;;;;6.82;6.18;;;22.00;99.90;;;;;;5053083;28;20292;-85
2022/07/24 04:20:09;;;;;;;5.88;5.38;;;22.10;99.90;;;;;;5053305;28;20288;-90
2022/07/24 04:22:37;;;;;;;6.47;5.97;;;22.10;99.90;;;;;;5084267;22;20296;-88
2022/07/24 04:25:08;;;;;;;5.82;5.32;;;22.10;99.90;;;;;;5072049;28;20207;-88
2022/07/24 04:27:36;;;;;;;6.03;5.53;;;22.10;99.90;;;;;;5073174;28;20223;-88
2022/07/24 04:30:07;;;;;;;5.18;4.78;;;22.20;99.90;;;;;;5073016;28;20225;-88
2022/07/24 04:32:36;;;;;;;5.53;5.10;;;22.20;99.90;;;;;;5073017;28;20217;-88
2022/07/24 04:35:04;;;;;;;6.35;5.60;;;22.20;99.90;;;;;;5073145;28;20229;-88
2022/07/24 04:37:33;;;;;;;6.45;5.85;;;22.30;99.90;;;;;;5073052;28;20296;-88
2022/07/24 04:40:01;;;;;;;5.28;4.80;;;22.30;99.90;;;;;;5072718;28;20197;-87
2022/07/24 04:42:29;;;;;;;5.88;5.45;;;22.40;99.90;;;;;;5073303;28;20302;-88
2022/07/24 04:44:58;;;;;;;6.03;5.53;;;22.40;99.90;;;;;;5073295;28;20240;-88
2022/07/24 04:47:28;;;;;;;6.97;5.53;;;22.50;99.90;;;;;;5073070;28;20245;-88
2022/07/24 04:49:56;;;;;;;5.78;5.22;;;22.50;99.90;;;;;;5072625;28;20201;-88
2022/07/24 04:52:24;;;;;;;5.25;4.85;;;22.60;99.90;;;;;;5073075;28;20225;-88
2022/07/24 04:54:53;;;;;;;5.53;5.07;;;22.60;99.90;;;;;;5072787;28;20239;-89
2022/07/24 04:57:21;;;;;;;5.63;5.22;;;22.60;99.90;;;;;;5072788;28;20200;-88
2022/07/24 04:59:49;;;;;;;5.82;5.20;;;22.70;99.90;;;;;;5072566;28;20316;-88
2022/07/24 05:02:18;;;;;;;4.57;4.28;;;22.80;99.90;;;;;;5072603;28;20248;-88
2022/07/24 05:04:47;;;;;;;5.68;4.80;;;22.80;99.90;;;;;;5072439;28;20204;-88
2022/07/24 05:07:16;;;;;;;5.07;4.63;;;22.80;99.90;;;;;;5071903;28;20303;-88
2022/07/24 05:09:44;;;;;;;7.53;5.45;;;22.80;99.90;;;;;;5072447;28;20225;-88
2022/07/24 05:12:12;;;;;;;6.47;5.32;;;22.80;99.90;;;;;;5072565;28;20238;-88
2022/07/24 05:14:41;;;;;;;5.45;4.97;;;22.70;99.90;;;;;;5072426;28;20239;-88
2022/07/24 05:17:09;;;;;;;4.68;4.28;;;22.80;99.90;;;;;;5072890;28;20193;-88
2022/07/24 05:19:37;;;;;;;4.95;4.57;;;22.80;99.90;;;;;;5072427;28;20273;-88
2022/07/24 05:22:07;;;;;;;5.70;5.15;;;22.80;99.90;;;;;;5071889;28;20239;-88
2022/07/24 05:24:35;;;;;;;5.00;4.50;;;22.80;99.90;;;;;;5072066;28;20229;-88
2022/07/24 05:27:04;;;;;;;5.38;4.85;;;22.80;99.90;;;;;;5072047;28;20213;-88
2022/07/24 05:29:39;;;;;;;5.28;4.85;;;22.90;99.90;;;;;;5072460;28;20200;-88
2022/07/24 05:32:09;;;;;;;5.88;5.22;;;22.90;99.90;;;;;;5072657;28;20240;-88
2022/07/24 05:34:37;;;;;;;3.80;3.55;;;23.00;99.90;;;;;;5072578;28;20269;-88
2022/07/24 05:37:10;;;;;;;5.32;4.80;;;23.10;99.90;;;;;;5072441;28;20205;-89
2022/07/24 05:39:38;;;;;;;5.13;4.63;;;23.20;99.90;;;;;;5072285;28;20233;-88
2022/07/24 05:42:07;;;;;;;5.95;4.00;;;23.20;99.90;;;;;;5072318;28;20204;-88
2022/07/24 05:44:36;;;;;;;5.15;4.75;;;23.30;99.90;;;;;;5072335;28;20262;-88
2022/07/24 05:47:05;;;;;;;4.38;3.97;;;23.10;99.90;;;;;;5072036;28;20221;-88
2022/07/24 05:49:35;;;;;;;6.18;5.07;;;23.20;99.90;;;;;;5071821;28;20284;-88
2022/07/24 05:52:03;;;;;;;5.03;4.50;;;23.20;99.90;;;;;;5072313;28;20239;-88
2022/07/24 05:54:38;;;;;;;10.50;3.75;;;23.20;99.90;;;;;;5072188;28;20208;-88
2022/07/24 05:57:07;;;;;;;4.00;3.70;;;23.30;99.90;;;;;;5072215;28;20208;-88
2022/07/24 05:59:35;;;;;;;4.55;4.18;;;23.30;99.90;;;;;;5072059;28;20225;-88
2022/07/24 06:02:04;;;;;;;5.85;4.47;;;23.40;99.90;;;;;;5071899;28;20228;-88
2022/07/24 06:04:35;;;;;;;5.22;4.82;;;23.40;99.90;;;;;;5072187;28;20274;-88
2022/07/24 06:07:04;;;;;;;4.28;3.97;;;23.50;99.90;;;;;;5071942;28;20240;-88
2022/07/24 06:09:32;;;;;;;4.25;3.85;;;23.50;99.90;;;;;;5071928;28;20209;-88
2022/07/24 06:12:02;;;;;;;5.30;4.30;;;23.60;99.90;;;;;;5072321;28;20205;-88
2022/07/24 06:14:31;;;;;;;4.80;4.40;;;23.70;99.90;;;;;;5071937;28;20231;-88
2022/07/24 06:17:00;;;;;;;4.55;4.20;;;23.80;99.90;;;;;;5072860;28;20198;-88
2022/07/24 06:19:28;;;;;;;5.75;4.78;;;23.70;99.90;;;;;;5075595;28;20209;-88
2022/07/24 06:21:57;;;;;;;4.13;3.83;;;23.80;99.90;;;;;;5075937;28;20197;-88
2022/07/24 06:24:26;;;;;;;4.65;4.28;;;23.90;99.90;;;;;;5075690;28;20212;-88
2022/07/24 06:26:54;;;;;;;4.03;3.72;;;23.90;99.90;;;;;;5075816;28;20313;-88
2022/07/24 06:29:41;;;;;;;4.75;4.35;;;24.00;99.90;;;;;;5075350;28;20201;-88
2022/07/24 06:32:10;;;;;;;3.33;3.13;;;24.10;99.90;;;;;;5075788;28;20245;-88
2022/07/24 06:34:38;;;;;;;4.43;4.03;;;24.10;99.90;;;;;;5075658;28;20229;-88
2022/07/24 06:37:06;;;;;;;4.32;3.95;;;24.10;99.90;;;;;;5075694;28;20201;-88
2022/07/24 06:39:35;;;;;;;4.40;4.10;;;24.20;99.90;;;;;;5075314;28;20300;-88
2022/07/24 06:42:03;;;;;;;3.92;3.63;;;24.30;99.90;;;;;;5075278;28;20205;-89
2022/07/24 06:44:33;;;;;;;4.03;3.72;;;24.40;99.90;;;;;;5075397;28;20205;-89
2022/07/24 06:47:03;;;;;;;4.10;3.70;;;24.50;99.90;;;;;;5075336;28;20255;-89
2022/07/24 06:49:31;;;;;;;5.38;4.07;;;24.60;99.90;;;;;;5075263;28;20224;-89
2022/07/24 06:52:00;;;;;;;5.80;4.25;;;24.70;99.90;;;;;;5075171;28;20233;-88
2022/07/24 06:54:28;;;;;;;7.78;3.75;;;24.80;99.90;;;;;;5075337;28;20201;-89
2022/07/24 06:56:56;;;;;;;4.03;3.65;;;24.90;99.90;;;;;;5075360;28;20280;-89
2022/07/24 06:59:25;;;;;;;3.72;3.42;;;25.00;99.90;;;;;;5074766;28;20244;-89
2022/07/24 07:01:53;;;;;;;3.58;3.30;;;25.10;99.90;;;;;;5075203;28;20272;-89
2022/07/24 07:04:23;;;;;;;3.40;3.10;;;25.20;99.90;;;;;;5074883;28;20231;-88
2022/07/24 07:06:51;;;;;;;4.00;3.70;;;25.40;99.90;;;;;;5074777;28;20310;-89
2022/07/24 07:09:20;;;;;;;3.90;3.50;;;25.70;99.40;;;;;;5074726;28;20289;-88
2022/07/24 07:11:48;;;;;;;3.10;2.90;;;25.70;99.20;;;;;;5074926;28;20236;-88
2022/07/24 07:14:19;;;;;;;3.47;3.17;;;25.70;98.20;;;;;;5075039;28;20217;-89
2022/07/24 07:16:48;;;;;;;4.07;3.53;;;25.50;98.40;;;;;;5074693;28;20201;-89
2022/07/24 07:19:16;;;;;;;3.95;3.28;;;25.70;98.80;;;;;;5074957;28;20268;-89
2022/07/24 07:21:46;;;;;;;6.50;3.53;;;25.70;98.00;;;;;;5074365;28;20288;-88
2022/07/24 07:24:14;;;;;;;3.75;3.47;;;25.70;98.30;;;;;;5074315;28;20328;-88
2022/07/24 07:26:42;;;;;;;4.95;3.53;;;25.80;98.40;;;;;;5074491;28;20240;-89
2022/07/24 07:29:11;;;;;;;3.30;3.10;;;26.10;97.80;;;;;;5073608;28;20253;-89
2022/07/24 07:31:39;;;;;;;3.97;3.33;;;26.70;96.60;;;;;;5074898;28;20288;-88
2022/07/24 07:34:08;;;;;;;3.25;3.05;;;27.40;95.80;;;;;;5074664;28;20232;-89
2022/07/24 07:36:37;;;;;;;3.08;2.78;;;28.50;93.10;;;;;;5074642;28;20235;-89
2022/07/24 07:39:06;;;;;;;3.10;2.90;;;29.40;90.70;;;;;;5074181;28;20212;-89
2022/07/24 07:41:35;;;;;;;3.47;3.17;;;29.90;85.20;;;;;;5074200;28;20201;-89
2022/07/24 07:44:05;;;;;;;3.30;3.05;;;30.60;84.70;;;;;;5073810;28;20235;-89
2022/07/24 07:46:35;;;;;;;3.13;2.92;;;31.60;77.70;;;;;;5074324;28;20204;-89
2022/07/24 07:49:03;;;;;;;2.90;2.70;;;32.60;73.40;;;;;;5073646;28;20230;-89
2022/07/24 07:51:32;;;;;;;3.10;2.85;;;33.10;70.20;;;;;;5074094;28;20292;-89
2022/07/24 07:54:01;;;;;;;2.65;2.53;;;33.50;66.80;;;;;;5074058;28;20239;-89
2022/07/24 07:56:32;;;;;;;3.42;3.13;;;34.00;63.30;;;;;;5073954;28;20235;-89
2022/07/24 07:59:00;;;;;;;2.30;2.20;;;34.10;62.40;;;;;;5073581;28;20196;-89
2022/07/24 08:01:29;;;;;;;2.83;2.63;;;34.50;61.40;;;;;;5073885;28;20208;-89
2022/07/24 08:03:57;;;;;;;2.78;2.58;;;34.80;60.30;;;;;;5073947;28;20228;-88
2022/07/24 08:06:26;;;;;;;3.58;2.70;;;34.20;60.50;;;;;;5073861;28;20315;-89
2022/07/24 08:08:54;;;;;;;8.35;3.05;;;35.00;58.90;;;;;;5073432;28;20221;-89
2022/07/24 08:11:23;;;;;;;3.42;2.72;;;35.90;58.70;;;;;;5073249;28;20205;-89
2022/07/24 08:13:53;;;;;;;2.47;2.33;;;36.60;56.90;;;;;;5073531;28;20248;-89
2022/07/24 08:16:21;;;;;;;2.58;1.73;;;36.80;55.00;;;;;;5073902;28;20223;-89
2022/07/24 08:18:50;;;;;;;2.58;2.40;;;36.90;50.90;;;;;;5073710;28;20205;-89
2022/07/24 08:21:19;;;;;;;3.00;2.60;;;37.10;52.80;;;;;;5073228;28;20288;-89
2022/07/24 08:23:48;;;;;;;2.38;2.28;;;37.50;53.00;;;;;;5072970;28;20320;-89
2022/07/24 08:26:16;;;;;;;2.65;2.45;;;37.90;50.30;;;;;;5073444;28;20250;-91
2022/07/24 08:28:45;;;;;;;2.85;2.45;;;38.50;49.80;;;;;;5072968;28;20259;-91
2022/07/24 08:31:15;;;;;;;3.55;2.30;;;38.70;47.20;;;;;;5073428;28;20204;-91
2022/07/24 08:33:43;;;;;;;2.65;2.45;;;39.30;46.70;;;;;;5073240;28;20221;-91
2022/07/24 08:36:11;;;;;;;2.78;2.58;;;38.40;46.10;;;;;;5073136;28;20293;-91
2022/07/24 08:38:40;;;;;;;2.60;2.40;;;38.80;47.50;;;;;;5073319;28;20197;-92
2022/07/24 08:41:08;;;;;;;2.25;2.10;;;38.70;46.80;;;;;;5073140;28;20208;-91
2022/07/24 08:43:37;;;;;;;2.20;2.10;;;38.90;46.80;;;;;;5073270;28;20260;-92
2022/07/24 08:46:10;;;;;;;2.85;2.65;;;39.60;45.30;;;;;;5073418;28;20231;-91
2022/07/24 08:48:44;;;;;;;3.13;2.20;;;40.00;44.70;;;;;;5072690;28;20243;-92
2022/07/24 08:51:14;;;;;;;3.08;2.10;;;40.00;42.50;;;;;;5073081;28;20211;-91
2022/07/24 08:53:44;;;;;;;2.80;2.60;;;39.40;43.00;;;;;;5073109;28;20236;-92
2022/07/24 08:56:13;;;;;;;2.10;2.00;;;39.00;44.90;;;;;;5072852;28;20208;-92
2022/07/24 08:58:42;;;;;;;2.20;2.10;;;39.10;43.30;;;;;;5072950;28;20283;-92
2022/07/24 09:01:10;;;;;;;2.40;2.20;;;39.00;44.00;;;;;;5073039;28;20196;-92
2022/07/24 09:03:45;;;;;;;2.45;1.88;;;39.00;42.10;;;;;;5072690;28;20225;-92
2022/07/24 09:06:15;;;;;;;2.20;2.00;;;39.30;42.20;;;;;;5073029;28;20231;-92
2022/07/24 09:08:57;;;;;;;2.58;1.92;;;38.90;41.80;;;;;;5072040;28;20220;-92
2022/07/24 09:11:25;;;;;;;2.50;2.30;;;38.90;42.10;;;;;;5072740;28;20204;-92
2022/07/24 09:16:40;;;;;;;2.20;2.10;;;38.20;42.20;;;;;;5072538;28;20228;-92
2022/07/24 09:19:10;;;;;;;2.00;1.90;;;38.60;42.00;;;;;;5072342;28;20197;-92
2022/07/24 09:21:48;;;;;;;2.28;2.13;;;38.40;41.00;;;;;;5072433;28;20272;-93
2022/07/24 09:24:20;;;;;;;2.67;2.47;;;39.00;42.00;;;;;;5072399;28;20295;-93
2022/07/24 09:26:50;;;;;;;2.60;2.40;;;39.50;41.00;;;;;;5072629;28;20200;-92
2022/07/24 09:29:20;;;;;;;11.25;2.20;;;39.70;40.80;;;;;;5072266;28;20247;-92
2022/07/24 09:31:55;;;;;;;2.15;2.00;;;39.90;39.00;;;;;;5072506;28;20200;-93
2022/07/24 09:34:26;;;;;;;6.43;1.95;;;39.50;39.20;;;;;;5072996;28;20207;-93
2022/07/24 09:36:59;;;;;;;2.13;2.03;;;38.20;41.70;;;;;;5072582;28;20287;-92
2022/07/24 09:39:29;;;;;;;2.30;2.15;;;38.40;42.30;;;;;;5072303;28;20285;-94
2022/07/24 09:41:58;;;;;;;1.83;1.73;;;38.90;42.40;;;;;;5072411;28;20235;-93
2022/07/24 09:44:28;;;;;;;2.17;1.98;;;38.30;41.80;;;;;;5072990;28;20281;-93
2022/07/24 09:46:58;;;;;;;1.70;1.60;;;38.00;42.00;;;;;;5072811;28;20207;-93
2022/07/24 09:49:29;;;;;;;2.47;2.28;;;37.50;42.10;;;;;;5071919;28;20248;-93
2022/07/24 09:52:10;;;;;;;1.92;1.83;;;36.90;42.40;;;;;;5073162;28;20224;-93
2022/07/24 09:54:40;;;;;;;2.40;2.30;;;37.30;43.10;;;;;;5076332;28;20208;-93
2022/07/24 09:57:18;;;;;;;2.42;2.30;;;37.60;41.80;;;;;;5076335;28;20247;-93
2022/07/24 09:59:48;;;;;;;2.20;1.92;;;37.80;42.10;;;;;;5076405;28;20235;-93
2022/07/24 10:02:26;;;;;;;2.13;2.03;;;38.00;41.50;;;;;;5075933;28;20232;-94
2022/07/24 10:04:57;;;;;;;2.92;2.15;;;38.40;41.90;;;;;;5075863;28;20200;-93
2022/07/24 10:07:28;;;;;;;2.13;1.95;;;38.90;41.00;;;;;;5075915;28;20304;-93
2022/07/24 10:10:00;;;;;;;1.88;1.77;;;39.10;39.70;;;;;;5075744;28;20225;-93
2022/07/24 10:12:30;;;;;;;2.58;2.38;;;38.60;39.80;;;;;;5075995;28;20234;-93
2022/07/24 10:15:01;;;;;;;2.00;1.90;;;38.60;40.00;;;;;;5075937;28;20284;-93
2022/07/24 10:17:48;;;;;;;2.15;2.05;;;38.60;40.10;;;;;;5075901;28;20201;-93
2022/07/24 10:20:28;;;;;;;4.95;2.50;;;38.50;40.10;;;;;;5075582;28;20204;-93
2022/07/24 10:23:22;;;;;;;2.03;1.83;;;38.70;39.60;;;;;;5093387;22;20236;-88
2022/07/24 10:25:56;;;;;;;1.52;1.48;;;39.30;40.60;;;;;;5055496;28;20235;-89
2022/07/24 10:28:37;;;;;;;2.67;2.40;;;39.50;39.20;;;;;;5055552;28;20212;-89
2022/07/24 10:31:07;;;;;;;2.15;2.05;;;39.90;39.80;;;;;;5055734;28;20213;-88
2022/07/24 10:33:38;;;;;;;2.17;2.08;;;39.60;38.80;;;;;;5055331;28;20237;-88
2022/07/24 10:36:16;;;;;;;2.72;2.55;;;39.20;39.10;;;;;;5055546;28;20299;-87
2022/07/24 10:38:57;;;;;;;2.08;1.98;;;38.60;39.60;;;;;;5055467;28;20288;-88
2022/07/24 10:41:27;;;;;;;1.90;1.80;;;38.50;40.40;;;;;;5055419;28;20237;-88
2022/07/24 10:44:17;;;;;;;2.08;1.98;;;38.70;41.10;;;;;;5055228;28;20255;-88
2022/07/24 10:46:59;;;;;;;2.42;2.28;;;39.20;40.80;;;;;;5055451;28;20263;-88
2022/07/24 10:49:41;;;;;;;2.10;2.00;;;39.30;39.80;;;;;;5055041;28;20312;-87
2022/07/24 10:52:21;;;;;;;2.30;2.10;;;39.20;40.00;;;;;;5055024;28;20201;-88
2022/07/24 10:54:49;;;;;;;2.90;2.55;;;39.50;40.90;;;;;;5055150;28;20201;-87
2022/07/24 10:57:17;;;;;;;3.05;2.45;;;39.50;39.90;;;;;;5055351;28;20208;-88
2022/07/24 10:59:46;;;;;;;2.55;2.35;;;38.70;39.60;;;;;;5055130;28;20201;-88
2022/07/24 11:02:39;;;;;;;2.45;2.35;;;39.00;40.50;;;;;;5055036;28;20296;-88
2022/07/24 11:05:31;;;;;;;3.10;2.50;;;39.10;40.50;;;;;;5051362;28;20205;-88
2022/07/24 11:08:29;;;;;;;2.47;2.28;;;38.20;40.00;;;;;;5055151;28;20209;-88
2022/07/24 11:11:01;;;;;;;2.10;2.00;;;38.40;40.50;;;;;;5054541;28;20225;-87
2022/07/24 11:13:47;;;;;;;2.65;2.45;;;38.20;40.20;;;;;;5055103;28;20233;-88
2022/07/24 11:16:21;;;;;;;2.50;2.30;;;38.00;40.40;;;;;;5054836;28;20213;-88
2022/07/24 11:19:29;;;;;;;2.30;2.10;;;37.70;40.70;;;;;;5054621;28;20212;-88
2022/07/24 11:22:11;;;;;;;2.75;2.50;;;37.50;40.50;;;;;;4993509;28;20222;-88
2022/07/24 11:25:11;;;;;;;2.80;2.53;;;38.10;41.20;;;;;;4993276;28;20215;-88
2022/07/24 11:27:46;;;;;;;4.53;2.78;;;38.50;40.30;;;;;;5043090;28;20248;-88
2022/07/24 11:30:15;;;;;;;2.70;2.50;;;38.40;40.50;;;;;;5054356;28;20225;-88
2022/07/24 11:32:45;;;;;;;2.80;2.60;;;38.70;40.40;;;;;;5054519;28;20225;-83
2022/07/24 11:35:14;;;;;;;2.13;2.03;;;39.10;40.10;;;;;;5054478;28;20205;-83
2022/07/24 11:37:43;;;;;;;1.95;1.85;;;39.40;39.70;;;;;;5054471;28;20288;-83
2022/07/24 11:40:17;;;;;;;2.92;2.70;;;39.60;39.60;;;;;;5054029;28;20223;-83
2022/07/24 11:42:46;;;;;;;2.72;2.53;;;39.50;40.10;;;;;;5054274;28;20229;-83
2022/07/24 11:45:14;;;;;;;3.08;2.60;;;39.50;39.60;;;;;;5054702;28;20217;-83
2022/07/24 11:47:42;;;;;;;2.30;2.10;;;39.40;39.70;;;;;;5054274;28;20228;-83
2022/07/24 11:50:11;;;;;;;2.35;2.25;;;39.40;40.80;;;;;;5053726;28;20326;-82
2022/07/24 11:52:40;;;;;;;2.28;2.17;;;39.40;39.40;;;;;;5053814;28;20239;-83
2022/07/24 11:55:11;;;;;;;2.42;2.22;;;39.60;39.80;;;;;;5054593;28;20219;-83
2022/07/24 11:57:47;;;;;;;2.50;2.30;;;39.60;39.80;;;;;;5054144;28;20280;-83
2022/07/24 12:00:36;;;;;;;2.78;2.58;;;39.80;39.20;;;;;;5054127;28;20204;-83
2022/07/24 12:03:06;;;;;;;2.50;2.30;;;40.10;38.30;;;;;;5053857;28;20308;-83
2022/07/24 12:05:37;;;;;;;2.85;2.60;;;40.00;39.10;;;;;;5054045;28;20203;-83
2022/07/24 12:08:18;;;;;;;2.33;2.17;;;39.90;38.50;;;;;;5053517;28;20247;-83
2022/07/24 12:10:48;;;;;;;2.50;2.30;;;39.40;38.80;;;;;;5053576;28;20225;-83
2022/07/24 12:13:18;;;;;;;2.60;2.45;;;39.00;40.20;;;;;;5053560;28;20229;-83
2022/07/24 12:15:47;;;;;;;3.38;2.47;;;38.60;39.90;;;;;;5053126;28;20232;-83
2022/07/24 12:18:15;;;;;;;3.20;2.92;;;37.80;39.40;;;;;;5053694;28;20273;-83
2022/07/24 12:20:49;;;;;;;2.35;2.25;;;37.90;40.20;;;;;;5053704;28;20197;-83
2022/07/24 12:23:18;;;;;;;2.70;2.50;;;37.70;40.30;;;;;;5053191;28;20332;-83
2022/07/24 12:25:48;;;;;;;2.47;2.38;;;37.70;40.80;;;;;;5053446;28;20205;-83
2022/07/24 12:28:20;;;;;;;2.17;2.08;;;37.00;40.90;;;;;;5053456;28;20240;-83
2022/07/24 12:30:50;;;;;;;2.55;2.35;;;36.20;42.30;;;;;;5053045;28;20307;-83
2022/07/24 12:33:24;;;;;;;2.83;2.63;;;36.30;42.50;;;;;;5052999;28;20225;-83
2022/07/24 12:35:54;;;;;;;2.78;2.58;;;36.20;42.80;;;;;;5053112;28;20381;-83
2022/07/24 12:38:27;;;;;;;2.58;2.38;;;36.10;42.70;;;;;;5052990;28;20213;-83
2022/07/24 12:41:06;;;;;;;2.95;2.75;;;36.10;42.50;;;;;;5053252;28;20233;-83
2022/07/24 12:43:48;;;;;;;5.65;2.67;;;36.10;43.00;;;;;;5053284;28;20249;-83
2022/07/24 12:46:18;;;;;;;2.60;2.40;;;36.40;43.00;;;;;;5053518;28;20209;-83
2022/07/24 12:48:58;;;;;;;2.83;2.63;;;36.80;42.50;;;;;;5053463;28;20212;-83
2022/07/24 12:51:27;;;;;;;3.05;2.75;;;36.60;42.80;;;;;;5053035;28;20264;-83
2022/07/24 12:53:56;;;;;;;2.40;2.30;;;36.80;42.50;;;;;;5052605;28;20225;-83
2022/07/24 12:56:24;;;;;;;2.70;2.50;;;36.60;42.50;;;;;;5053004;28;20281;-83
2022/07/24 12:59:00;;;;;;;2.40;2.30;;;36.60;42.60;;;;;;5052765;28;20316;-83
2022/07/24 13:01:47;;;;;;;2.97;2.78;;;36.50;42.50;;;;;;5052905;28;20216;-83
2022/07/24 13:04:19;;;;;;;2.85;2.65;;;36.50;43.40;;;;;;5035404;28;20235;-83
2022/07/24 13:06:49;;;;;;;3.40;3.10;;;35.70;43.20;;;;;;5052776;28;20292;-83